Blue River, Oregon
Current Conditions -  °F | °C
As of 3:54 AM on Friday 19 Dec 2014 (Local Time) from KEUG Reporting Station
Moderate Rain Moderate Rain  
Wind Chill: 42°   Ceiling: 4500
Heat Index: 45°   Visibility: 9mi
Dew Point: 43°   Wind: 6mph
Humidity: 93%   Direction: 360°N
Pressure: 29.94"   Gusts: NA
Location:  44.15°N, 122.34°W
Report Text: KEUG 191154Z AUTO 36005KT 9SM RA BKN045 OVC070 07/06 A2994 RMK AO2 RAB26 SLP139 P0001 60015 70024 T00720061 10100 20056 50005
Loading
Personal Weather Stations






























Interactive Weather Map New forecast layout! Learn more

10-Day Weather Forecast

Advertisements
Track Severe Weather on mobile